Aroma, Indiana
Current Conditions -  °F | °C
As of 5:15 AM on Friday 19 Dec 2014 (Local Time) from KTYQ Reporting Station
Overcast Overcast  
Wind Chill: 16°   Ceiling: 2100
Heat Index: 23°   Visibility: 7mi
Dew Point: 19°   Wind: 6mph
Humidity: 85%   Direction: 310°NW
Pressure: 30.25"   Gusts: NA
Location:  40.1832°N, 85.9359°W
Report Text: KTYQ 191015Z AUTO 31005KT 7SM OVC021 M05/M07 A3025 RMK AO2 T10481070
Loading
Personal Weather Stations






























Interactive Weather Map New forecast layout! Learn more

10-Day Weather Forecast

Advertisements
Track Severe Weather on mobile